Flight Track Log - Related Links

Times and Time Zones

All times are in EST time to prevent confusion due to time zone crossing. See the N72WP flight status page for this flight to view local times or setup timezone preferences in your user account.

Time Position Orientation Groundspeed Altitude Reporting Facility
EST Latitude Longitude Course Direction KTS MPH feet Rate Location/Type
Sat 12:40:44 PM 28.2833 -81.4333 221° Southwest 84 97 400  Level Orlando TRACON
Sat 12:42:27 PM 28.2500 -81.4667 221° Southwest 131 151 1,800 847 Climbing Orlando TRACON
Sat 12:43:27 PM 28.2500 -81.5000 270° West 122 140 2,700 810 Climbing Orlando TRACON
Sat 12:44:33 PM 28.2500 -81.5500 270° West 121 139 3,500 800 Climbing Orlando TRACON
Sat 12:45:27 PM 28.2833 -81.5667 336° Northwest 129 148 4,300 895 Climbing Orlando TRACON
Sat 12:46:27 PM 28.3000 -81.6000 300° West 127 146 5,200 850 Climbing Orlando TRACON
Sat 12:47:27 PM 28.3167 -81.6333 300° West 122 140 6,000 800 Climbing Orlando TRACON
Sat 12:48:27 PM 28.3500 -81.6500 336° Northwest 126 145 6,800 744 Climbing Orlando TRACON
Sat 12:49:28 PM 28.3833 -81.6833 319° Northwest 131 151 7,500 793 Climbing Orlando TRACON
Sat 12:50:28 PM 28.4000 -81.7000 319° Northwest 130 150 8,400 850 Climbing Orlando TRACON
Sat 12:51:28 PM 28.4333 -81.7333 319° Northwest 128 147 9,200 727 Climbing Orlando TRACON
Sat 12:52:40 PM 28.4667 -81.7667 319° Northwest 129 148 10,000 400 Climbing Orlando TRACON
Sat 12:53:28 PM 28.5000 -81.8000 319° Northwest 172 198 10,000  Level Orlando TRACON
Sat 12:54:34 PM 28.5333 -81.8333 319° Northwest 179 206 10,000  Level Orlando TRACON
Sat 12:55:40 PM 28.5736 -81.8808 314° West 186 214 10,000  Level Jacksonville Center
Sat 12:56:41 PM 28.6136 -81.9183 321° Northwest 188 216 10,000 -49 Level Jacksonville Center
Sat 12:57:42 PM 28.6536 -81.9558 321° Northwest 188 216 9,900 -49 Descending Jacksonville Center
Sat 12:58:43 PM 28.7061 -81.9861 333° Northwest 198 228 9,900  Level Jacksonville Center
Sat 01:00:45 PM 28.8086 -82.0206 343° North 192 221 9,900  Level Jacksonville Center
Sat 01:01:58 PM 28.8714 -82.0414 344° North 193 222 9,900  Level Jacksonville Center
Sat 01:02:59 PM 28.9214 -82.0600 342° North 191 220 9,900  Level Jacksonville Center
Sat 01:04:00 PM 28.9717 -82.0761 344° North 189 217 9,900  Level Jacksonville Center
Sat 01:05:01 PM 29.0197 -82.0947 341° North 188 216 9,900  Level Jacksonville Center
Sat 01:06:02 PM 29.0742 -82.1156 342° North 189 217 9,900  Level Jacksonville Center
Sat 01:07:03 PM 29.1264 -82.1319 345° North 189 217 9,900  Level Jacksonville Center
Sat 01:08:04 PM 29.1767 -82.1506 342° North 188 216 9,900  Level Jacksonville Center
Sat 01:09:05 PM 29.2247 -82.1669 343° North 190 219 9,900  Level Jacksonville Center
Sat 01:10:06 PM 29.2833 -82.1856 345° North 192 221 9,900  Level Jacksonville Center
Sat 01:11:07 PM 29.3336 -82.2064 340° North 193 222 9,900  Level Jacksonville Center
Sat 01:12:07 PM 29.3836 -82.2228 344° North 193 222 9,900  Level Jacksonville Center
Sat 01:13:08 PM 29.4381 -82.2417 343° North 197 227 9,900  Level Jacksonville Center
Sat 01:14:09 PM 29.4903 -82.2603 343° North 195 224 9,900  Level Jacksonville Center
Sat 01:15:10 PM 29.5406 -82.2792 342° North 194 223 9,900  Level Jacksonville Center
Sat 01:16:43 PM 29.6222 -82.3050 345° North 206 237 9,900  Level Jacksonville Center
Sat 01:17:43 PM 29.6744 -82.3236 343° North 206 237 9,900  Level Jacksonville Center
Sat 01:18:43 PM 29.7267 -82.3425 343° North 201 231 9,900  Level Jacksonville Center
Sat 01:19:43 PM 29.7789 -82.3614 343° North 201 231 9,900  Level Jacksonville Center
Sat 01:20:43 PM 29.8311 -82.3803 343° North 196 226 9,900  Level Jacksonville Center
Sat 01:21:43 PM 29.8836 -82.3967 345° North 196 226 9,900  Level Jacksonville Center
Sat 01:22:43 PM 29.9358 -82.4156 343° North 196 226 9,900  Level Jacksonville Center
Sat 01:23:43 PM 29.9900 -82.4344 343° North 196 226 9,900  Level Jacksonville Center
Sat 01:24:43 PM 30.0361 -82.4536 340° North 196 226 9,900  Level Jacksonville Center
Sat 01:25:43 PM 30.0864 -82.4725 342° North 196 226 9,900  Level Jacksonville Center
Sat 01:26:43 PM 30.1386 -82.4914 343° North 191 220 9,900  Level Jacksonville Center
Sat 01:27:43 PM 30.1908 -82.5106 342° North 191 220 9,900  Level Jacksonville Center
Sat 01:28:43 PM 30.2408 -82.5294 342° North 186 214 9,900  Level Jacksonville Center
Sat 01:29:43 PM 30.2953 -82.5486 343° North 191 220 9,900  Level Jacksonville Center
Sat 01:30:43 PM 30.3456 -82.5678 342° North 191 220 9,900  Level Jacksonville Center
Sat 01:31:16 PM 30.3808 -82.5794 344° North 198 228 9,900  Level Jacksonville Center
Sat 01:31:43 PM 30.3997 -82.5867 342° North 191 220 9,900  Level Jacksonville Center
Sat 01:32:29 PM 30.4436 -82.6033 342° North 201 231 9,900  Level Jacksonville Center
Sat 01:32:43 PM 30.4519 -82.6058 346° North 191 220 9,900  Level Jacksonville Center
Sat 01:33:29 PM 30.4958 -82.6225 342° North 201 231 9,900  Level Jacksonville Center
Sat 01:33:43 PM 30.5064 -82.6250 348° North 191 220 9,900  Level Jacksonville Center
Sat 01:34:30 PM 30.5522 -82.6417 343° North 202 232 9,900  Level Jacksonville Center
Sat 01:34:43 PM 30.5628 -82.6489 329° Northwest 191 220 9,900  Level Jacksonville Center
Sat 01:35:24 PM 30.6003 -82.6608 345° North 201 231 9,900  Level Jacksonville Center
Sat 01:35:43 PM 30.6128 -82.6633 350° North 191 220 9,900  Level Jacksonville Center
Sat 01:36:25 PM 30.6547 -82.6825 339° North 201 231 9,900  Level Jacksonville Center
Sat 01:36:43 PM 30.6653 -82.6847 350° North 191 220 9,900  Level Jacksonville Center
Sat 01:37:26 PM 30.7069 -82.6992 343° North 201 231 9,900  Level Jacksonville Center
Sat 01:37:43 PM 30.7175 -82.7017 348° North 191 220 9,900  Level Jacksonville Center
Sat 01:38:26 PM 30.7611 -82.7208 339° North 199 229 9,900  Level Jacksonville Center
Sat 01:38:43 PM 30.7739 -82.7233 350° North 191 220 9,900  Level Jacksonville Center
Sat 01:39:21 PM 30.8092 -82.7378 341° North 201 231 9,900  Level Jacksonville Center
Sat 01:39:43 PM 30.8239 -82.7425 345° North 191 220 9,900  Level Jacksonville Center
Sat 01:40:21 PM 30.8636 -82.7594 340° North 199 229 9,900  Level Jacksonville Center
Sat 01:40:43 PM 30.8783 -82.7619 352° North 191 220 9,900  Level Jacksonville Center
Sat 01:41:22 PM 30.9158 -82.7764 342° North 200 230 9,900  Level Jacksonville Center
Sat 01:42:23 PM 30.9722 -82.7933 346° North 203 234 9,900  Level Jacksonville Center
Sat 01:43:23 PM 31.0244 -82.8150 340° North 205 236 9,900  Level Jacksonville Center
Sat 01:44:24 PM 31.0808 -82.8344 344° North 203 234 9,900  Level Jacksonville Center
Sat 01:45:31 PM 31.1392 -82.8586 340° North 199 229 9,900  Level Jacksonville Center
Sat 01:46:25 PM 31.1853 -82.8756 343° North 198 228 9,900  Level Jacksonville Center
Sat 01:46:31 PM 31.1936 -82.8756 360° North 199 229 9,900  Level Jacksonville Center
Sat 01:47:26 PM 31.2417 -82.8925 343° North 197 227 9,900  Level Jacksonville Center
Sat 01:47:31 PM 31.2436 -82.8950 312° West 199 229 9,900  Level Jacksonville Center
Sat 01:48:31 PM 31.2958 -82.9169 340° North 199 229 9,900  Level Jacksonville Center
Sat 01:48:32 PM 31.3000 -82.9169 360° North 198 228 9,900  Level Jacksonville Center
Sat 01:49:31 PM 31.3461 -82.9314 345° North 213 245 9,900  Level Jacksonville Center
Sat 01:50:31 PM 31.3981 -82.9533 340° North 219 252 9,900  Level Jacksonville Center
Sat 01:51:31 PM 31.4503 -82.9731 342° North 207 238 9,900  Level Jacksonville Center
Sat 01:52:31 PM 31.5025 -82.9900 345° North 202 232 9,900  Level Jacksonville Center
Sat 01:53:31 PM 31.5547 -83.0097 342° North 197 227 9,900  Level Jacksonville Center
Sat 01:54:31 PM 31.6069 -83.0292 342° North 192 221 9,900  Level Jacksonville Center
Sat 01:55:31 PM 31.6569 -83.0489 341° North 192 221 9,900  Level Jacksonville Center
Sat 01:56:31 PM 31.7092 -83.0683 342° North 192 221 9,900  Level Jacksonville Center
Sat 01:57:31 PM 31.7656 -83.0881 343° North 192 221 9,900  Level Jacksonville Center
Sat 01:58:31 PM 31.8178 -83.1078 342° North 192 221 9,900  Level Jacksonville Center
Sat 01:59:31 PM 31.8719 -83.1275 343° North 197 227 9,900  Level Jacksonville Center
Sat 02:00:31 PM 31.9261 -83.1494 341° North 197 227 9,900  Level Jacksonville Center
Sat 02:01:31 PM 31.9803 -83.1694 343° North 202 232 9,900 30 Level Jacksonville Center
Sat 02:03:49 PM 32.1000 -83.2167 342° North 202 232 10,000 30 Climbing Atlanta TRACON
Sat 02:04:49 PM 32.1667 -83.2333 348° North 201 231 10,000  Level Atlanta TRACON
Sat 02:05:55 PM 32.2167 -83.2667 331° Northwest 201 231 10,000  Level Atlanta TRACON
Sat 02:06:55 PM 32.2833 -83.2833 348° North 201 231 10,000  Level Atlanta TRACON
Sat 02:07:55 PM 32.3333 -83.3000 344° North 202 232 10,000  Level Atlanta TRACON
Sat 02:08:55 PM 32.3833 -83.3167 344° North 202 232 10,000  Level Atlanta TRACON
Sat 02:09:55 PM 32.4333 -83.3333 344° North 201 231 10,000  Level Atlanta TRACON
Sat 02:11:01 PM 32.5000 -83.3500 348° North 198 228 10,000  Level Atlanta TRACON
Sat 02:12:01 PM 32.5500 -83.3667 344° North 201 231 10,000  Level Atlanta TRACON
Sat 02:13:01 PM 32.6000 -83.3833 344° North 200 230 10,000  Level Atlanta TRACON
Sat 02:14:01 PM 32.6500 -83.4167 331° Northwest 202 232 10,000  Level Atlanta TRACON
Sat 02:14:55 PM 32.7000 -83.4333 344° North 202 232 10,000  Level Atlanta TRACON
Sat 02:15:55 PM 32.7667 -83.4500 348° North 202 232 10,000  Level Atlanta TRACON
Sat 02:16:55 PM 32.8167 -83.4667 344° North 202 232 10,000  Level Atlanta TRACON
Sat 02:17:55 PM 32.8667 -83.4833 344° North 204 235 10,000  Level Atlanta TRACON
Sat 02:19:01 PM 32.9333 -83.5000 348° North 204 235 10,000  Level Atlanta TRACON
Sat 02:19:55 PM 32.9833 -83.5167 344° North 203 234 10,000 -53 Level Atlanta TRACON
Sat 02:20:55 PM 33.0333 -83.5333 344° North 199 229 9,900 -368 Descending Atlanta TRACON
Sat 02:21:49 PM 33.0667 -83.5500 337° Northwest 199 229 9,300 -632 Descending Atlanta TRACON
Sat 02:22:49 PM 33.1333 -83.5667 348° North 197 227 8,700 -550 Descending Atlanta TRACON
Sat 02:23:49 PM 33.1833 -83.5833 344° North 199 229 8,200 -550 Descending Atlanta TRACON
Sat 02:24:49 PM 33.2333 -83.6167 331° Northwest 202 232 7,600 -550 Descending Atlanta TRACON
Sat 02:25:49 PM 33.2833 -83.6333 344° North 201 231 7,100 -600 Descending Atlanta TRACON
Sat 02:26:49 PM 33.3500 -83.6500 348° North 204 235 6,400 -550 Descending Atlanta TRACON
Sat 02:27:49 PM 33.4000 -83.6667 344° North 190 219 6,000 -350 Descending Atlanta TRACON
Sat 02:28:49 PM 33.4333 -83.7000 320° Northwest 175 201 5,700 -400 Descending Atlanta TRACON
Sat 02:29:49 PM 33.4667 -83.7500 309° West 178 205 5,200 -450 Descending Atlanta TRACON
Sat 02:30:49 PM 33.5000 -83.7833 320° Northwest 174 200 4,800 -500 Descending Atlanta TRACON
Sat 02:31:49 PM 33.5333 -83.8333 309° West 177 204 4,200 -474 Descending Atlanta TRACON
Sat 02:32:43 PM 33.5667 -83.8667 320° Northwest 171 197 3,900 -100 Descending Atlanta TRACON
Sat 02:33:49 PM 33.6000 -83.9167 309° West 177 204 4,000 48 Climbing Atlanta TRACON
Sat 02:34:49 PM 33.6333 -83.9667 309° West 176 203 4,000 -211 Level Atlanta TRACON
Sat 02:35:43 PM 33.6500 -84.0000 301° West 169 194 3,600 -550 Descending Atlanta TRACON
Sat 02:36:49 PM 33.6833 -84.0500 309° West 179 206 2,900 -333 Descending Atlanta TRACON
Sat 02:37:49 PM 33.7167 -84.0833 320° Northwest 155 178 2,900  Level Atlanta TRACON
Sat 02:38:49 PM 33.7500 -84.1333 309° West 152 175 2,900  Level Atlanta TRACON
Sat 02:39:49 PM 33.7833 -84.1667 320° Northwest 154 177 2,900  Level Atlanta TRACON
Sat 02:40:55 PM 33.8000 -84.2167 292° West 158 182 2,900  Level Atlanta TRACON
Sat 02:41:55 PM 33.8333 -84.2500 320° Northwest 141 162 2,900 -250 Level Atlanta TRACON
Sat 02:42:55 PM 33.8333 -84.2833 270° West 113 130 2,400 -700 Descending Atlanta TRACON
Sat 02:43:55 PM 33.8500 -84.3167 301° West 96 110 1,500 -900 Descending Atlanta TRACON
Sat 02:45:00 PM 33.8667 -84.3000 314° West  Level FlightAware Approximate
Sat 02:52:00 PM 33.8756 -84.3020 314° West  Level Estimated

Login

Don't have an account? Register now (free) for customized features, flight alerts, and more!